메인 페이지
METAR-TAF:

METAR-TAF

공항 :

리스본 포르텔라 국제공항

리스본, 포르투갈

위도: 38-46N, 경도: 009-08W, 고도: 114m

현재 날씨관측

예보는 43분 전, 18:00시(UTC)에 발표되었습니다.
서남서5kt
온도 15°C
습도 63%
기압 1022 hPa
시정 10km 이상
고도 3600ft 상공 구름 조금

METAR: LPPT 201800Z 24005KT 9999 FEW036 15/08 Q1022

시각: 18:43 (18:43 UTC)

예보

예보는 1 시간 43분 전, 17:00시(UTC)에 발표되었습니다.
예보 대상 시간: 20일 18시부터 21일 24시까지 (UTC)
남서8kt
시정 10km 이상
고도 3000ft 상공 구름 조금
전환 중
20일 19시부터 20일 21시까지 (UTC)
여러 방향의 바람 3kt
시정 10km 이상
1500m 미만 상공 구름 및 적란운 없음
전환 중
21일 03시부터 21일 06시까지 (UTC)
5kt
전환 중
21일 09시부터 21일 12시까지 (UTC)
동남동7kt
시정 10km 이상
고도 2000ft 상공 구름 보통
전환 중
21일 13시부터 21일 15시까지 (UTC)
남남서8kt
전환 중
21일 21시부터 21일 24시까지 (UTC)
여러 방향의 바람 3kt

TAF: LPPT 201700Z 2018/2124 23008KT 9999 FEW030 BECMG 2019/2021 VRB03KT CAVOK BECMG 2103/2106 09005KT BECMG 2109/2112 12007KT 9999 SCT020 BECMG 2113/2115 20008KT BECMG 2121/2124 VRB03KT

4,000개 이상의 공항 관측 자료 및 예보 (METAR 및 TAF 보고).

지도상에서 검색 가능한 기상관측소가 노란 점과 빨간 점으로 표시되어 있습니다.

기상관측소 명을 보려면 표시 위로 마우스를 이동하세요.

날씨 관측과 예보를 보려면 클릭하세요.

지도 변경 : 확대하려면 엑스 표시가 있는 녹색 버튼, 축소하려면 빼기 표시가 있는 녹색 버튼, 다음 페이지의 지도를 보려면 녹색 화살표를 클릭하세요.


METAR-TAF: